Paradise Hill, Canada
Current Conditions -  °F | °C
As of 6:00 AM on Saturday 20 Dec 2014 (Local Time) from CYLL Reporting Station
Overcast Overcast  
Wind Chill: 16°   Ceiling: 9000
Heat Index: 16°   Visibility: 8mi
Dew Point: 14°   Wind: 2mph
Humidity: 93%   Direction: 150°SSE
Pressure: 29.68"   Gusts: NA
Location:  53.53°N, 109.45°W
Report Text: CYLL 201200Z AUTO 15002KT 8SM OVC090 M09/M10 A2968 RMK SLP100
Loading
Personal Weather Stations






























Interactive Weather Map New forecast layout! Learn more

10-Day Weather Forecast

Advertisements
Track Severe Weather on mobile